Open Full Screen Window  High Contrast Mode
Wind Gusting 00 knots
10
March 29, 2015 4:20 AM CDT
Weather Information
Wind Direction
  230 °
Wind Speed
  10 kt (12 mph)
Wind Gust
  00 kt (0 mph)
Altimeter
29.67 in
Visibility
10 SM
Temperature
04° C
39° F
Dewpoint
02° C
36° F
Humidity
87%
1hr Rain Fall
00.00 in.
24hr Rain Fall
00.00 in.
Sky Condition
Clear
VFR

METAR KMDS 290920Z AUTO 23010KT 10SM CLR 04/02 A2967 RMK AO2

*Background is not an actual portrayal of the airport.